createdAt,value
2019-02-19T00:00:53.426Z,9.15
2019-02-19T00:03:22.201Z,9.35
2019-02-19T00:05:51.006Z,8.75
2019-02-19T00:08:19.839Z,9.60
2019-02-19T00:10:48.570Z,8.83
2019-02-19T00:13:17.377Z,8.78
2019-02-19T00:15:46.083Z,8.23
2019-02-19T00:18:14.985Z,8.78
2019-02-19T00:20:43.851Z,7.92
2019-02-19T00:23:12.576Z,8.50
2019-02-19T00:25:41.435Z,8.90
2019-02-19T00:28:10.194Z,9.23
2019-02-19T00:30:38.980Z,8.23
2019-02-19T00:33:07.926Z,8.03
2019-02-19T00:35:36.797Z,8.68
2019-02-19T00:38:06.387Z,8.23
2019-02-19T00:40:35.192Z,9.18
2019-02-19T00:43:03.941Z,7.87
2019-02-19T00:45:32.749Z,8.93
2019-02-19T00:48:01.471Z,8.30
2019-02-19T00:50:30.244Z,8.18
2019-02-19T00:52:59.055Z,8.48
2019-02-19T00:55:27.809Z,9.15
2019-02-19T00:57:56.723Z,8.75
2019-02-19T01:00:25.467Z,8.73
2019-02-19T01:02:54.170Z,8.63
2019-02-19T01:05:23.199Z,8.15
2019-02-19T01:07:51.984Z,8.90
2019-02-19T01:10:20.805Z,8.98
2019-02-19T01:12:49.526Z,9.13
2019-02-19T01:15:25.235Z,8.50
2019-02-19T01:17:48.742Z,8.18
2019-02-19T01:20:17.530Z,8.45
2019-02-19T01:22:46.274Z,9.55
2019-02-19T01:25:15.023Z,8.23
2019-02-19T01:27:43.762Z,8.40
2019-02-19T01:30:12.612Z,8.43
2019-02-19T01:32:41.357Z,8.88
2019-02-19T01:35:10.159Z,9.25
2019-02-19T01:37:38.917Z,9.23
2019-02-19T01:40:08.118Z,9.78
2019-02-19T01:42:36.823Z,9.78
2019-02-19T01:45:06.018Z,8.90
2019-02-19T01:47:34.675Z,9.40
2019-02-19T01:50:03.639Z,8.83
2019-02-19T01:52:32.381Z,8.45
2019-02-19T01:55:01.146Z,9.08
2019-02-19T01:57:30.009Z,9.03
2019-02-19T01:59:58.849Z,8.88
2019-02-19T02:02:27.566Z,9.18
2019-02-19T02:04:56.303Z,9.28
2019-02-19T02:07:25.050Z,9.13
2019-02-19T02:09:53.848Z,8.58
2019-02-19T02:12:22.590Z,9.98
2019-02-19T02:14:51.335Z,8.85
2019-02-19T02:17:20.107Z,9.05
2019-02-19T02:19:48.791Z,8.38
2019-02-19T02:22:17.506Z,8.98
2019-02-19T02:24:46.216Z,9.18
2019-02-19T02:27:14.942Z,9.68
2019-02-19T02:29:43.679Z,10.82
2019-02-19T02:32:12.573Z,10.58
2019-02-19T02:34:41.277Z,10.88
2019-02-19T02:37:10.225Z,10.45
2019-02-19T02:39:39.081Z,11.57
2019-02-19T02:42:07.857Z,11.08
2019-02-19T02:44:36.601Z,12.90
2019-02-19T02:47:05.370Z,12.03
2019-02-19T02:49:34.123Z,11.93
2019-02-19T02:52:02.917Z,11.85
2019-02-19T02:54:31.665Z,12.55
2019-02-19T02:57:00.398Z,12.65
2019-02-19T02:59:29.080Z,12.88
2019-02-19T03:01:57.810Z,14.43
2019-02-19T03:04:26.569Z,12.28
2019-02-19T03:07:13.054Z,14.15
2019-02-19T03:09:41.802Z,14.53
2019-02-19T03:12:10.622Z,14.30
2019-02-19T03:14:39.337Z,15.83
2019-02-19T03:17:08.200Z,15.03
2019-02-19T03:19:37.569Z,15.25
2019-02-19T03:22:06.335Z,16.75
2019-02-19T03:24:35.161Z,16.73
2019-02-19T03:27:04.007Z,17.00
2019-02-19T03:29:32.795Z,16.62
2019-02-19T03:32:01.500Z,15.32
2019-02-19T03:34:30.221Z,16.93
2019-02-19T03:36:58.941Z,17.62
2019-02-19T03:39:27.717Z,17.73
2019-02-19T03:41:56.489Z,18.32
2019-02-19T03:44:25.179Z,19.07
2019-02-19T03:46:54.037Z,17.90
2019-02-19T03:49:22.809Z,18.48
2019-02-19T03:51:51.643Z,18.23
2019-02-19T03:54:20.323Z,18.05
2019-02-19T03:56:49.081Z,18.02
2019-02-19T03:59:18.001Z,18.40
2019-02-19T04:01:46.751Z,17.45
2019-02-19T04:04:15.600Z,18.87
2019-02-19T04:06:44.298Z,18.82
2019-02-19T04:09:13.026Z,20.08
2019-02-19T04:11:41.766Z,19.32
2019-02-19T04:14:10.516Z,21.57
2019-02-19T04:16:39.254Z,20.17
2019-02-19T04:19:08.001Z,20.17
2019-02-19T04:21:36.837Z,19.55
2019-02-19T04:24:05.657Z,18.82
2019-02-19T04:26:34.369Z,20.48
2019-02-19T04:29:03.087Z,20.95
2019-02-19T04:31:31.919Z,21.12
2019-02-19T04:34:00.670Z,20.88
2019-02-19T04:36:29.502Z,20.68
2019-02-19T04:38:58.186Z,21.05
2019-02-19T04:41:26.918Z,21.75
2019-02-19T04:43:55.776Z,20.95
2019-02-19T04:46:31.160Z,19.52
2019-02-19T04:48:54.923Z,21.65
2019-02-19T04:51:23.638Z,20.23
2019-02-19T04:53:52.367Z,20.48
2019-02-19T04:56:21.100Z,19.60
2019-02-19T04:58:49.816Z,20.20
2019-02-19T05:01:18.631Z,21.20
2019-02-19T05:03:47.454Z,20.15
2019-02-19T05:06:16.166Z,21.12
2019-02-19T05:08:44.895Z,20.17
2019-02-19T05:11:13.613Z,19.90
2019-02-19T05:13:42.328Z,18.73
2019-02-19T05:16:11.073Z,18.07
2019-02-19T05:18:39.847Z,17.37
2019-02-19T05:21:08.617Z,16.80
2019-02-19T05:23:37.370Z,18.37
2019-02-19T05:26:06.112Z,17.82
2019-02-19T05:28:34.886Z,15.83
2019-02-19T05:31:03.773Z,17.55
2019-02-19T05:33:32.711Z,17.30
2019-02-19T05:36:01.568Z,15.98
2019-02-19T05:38:30.411Z,16.70
2019-02-19T05:40:59.191Z,15.43
2019-02-19T05:43:27.925Z,17.30
2019-02-19T05:45:56.704Z,15.83
2019-02-19T05:48:25.379Z,16.27
2019-02-19T05:50:54.268Z,16.80
2019-02-19T05:53:22.934Z,17.57
2019-02-19T05:55:51.775Z,16.52
2019-02-19T05:58:20.546Z,17.82
2019-02-19T06:00:49.401Z,18.20
2019-02-19T06:03:18.109Z,18.57
2019-02-19T06:05:47.106Z,18.35
2019-02-19T06:08:15.888Z,17.75
2019-02-19T06:10:44.694Z,18.25
2019-02-19T06:13:13.448Z,18.35
2019-02-19T06:15:42.279Z,18.30
2019-02-19T06:18:11.078Z,18.07
2019-02-19T06:20:40.021Z,18.82
2019-02-19T06:23:08.898Z,18.57
2019-02-19T06:25:37.838Z,16.73
2019-02-19T06:28:06.639Z,18.32
2019-02-19T06:30:35.435Z,20.05
2019-02-19T06:33:04.138Z,18.25
2019-02-19T06:35:32.933Z,20.08
2019-02-19T06:38:01.648Z,18.80
2019-02-19T06:40:30.407Z,19.95
2019-02-19T06:42:59.164Z,19.73
2019-02-19T06:45:27.852Z,19.85
2019-02-19T06:47:56.614Z,20.68
2019-02-19T06:50:25.307Z,18.85
2019-02-19T06:52:54.201Z,19.37
2019-02-19T06:55:22.930Z,19.67
2019-02-19T06:57:51.682Z,20.15
2019-02-19T07:00:20.475Z,20.15
2019-02-19T07:03:03.201Z,19.90
2019-02-19T07:05:32.116Z,19.55
2019-02-19T07:08:00.834Z,19.15
2019-02-19T07:10:29.571Z,19.60
2019-02-19T07:12:58.291Z,17.65
2019-02-19T07:15:27.045Z,19.37
2019-02-19T07:17:55.766Z,19.90
2019-02-19T07:20:24.665Z,17.35
2019-02-19T07:22:53.565Z,19.77
2019-02-19T07:25:22.409Z,19.52
2019-02-19T07:27:51.164Z,18.85
2019-02-19T07:30:19.893Z,18.62
2019-02-19T07:32:48.701Z,17.35
2019-02-19T07:35:17.429Z,19.87
2019-02-19T07:37:46.218Z,17.80
2019-02-19T07:40:14.988Z,17.55
2019-02-19T07:42:43.814Z,18.42
2019-02-19T07:45:12.654Z,17.92
2019-02-19T07:47:41.477Z,18.25
2019-02-19T07:50:10.304Z,17.98
2019-02-19T07:52:39.066Z,17.02
2019-02-19T07:55:08.163Z,19.35
2019-02-19T07:57:36.915Z,18.48
2019-02-19T08:00:05.735Z,17.42
2019-02-19T08:02:34.487Z,18.87
2019-02-19T08:05:03.596Z,19.50
2019-02-19T08:07:32.448Z,18.80
2019-02-19T08:10:13.495Z,17.82
2019-02-19T08:12:43.819Z,17.15
2019-02-19T08:15:12.572Z,17.70
2019-02-19T08:18:01.006Z,16.85
2019-02-19T08:20:29.807Z,16.52
2019-02-19T08:23:01.750Z,16.30
2019-02-19T08:25:30.514Z,16.82
2019-02-19T08:27:59.237Z,17.95
2019-02-19T08:30:28.103Z,16.17
2019-02-19T08:32:56.923Z,14.83
2019-02-19T08:35:25.639Z,15.88
2019-02-19T08:37:54.429Z,14.23
2019-02-19T08:40:23.219Z,14.78
2019-02-19T08:42:52.055Z,14.47
2019-02-19T08:45:20.902Z,15.50
2019-02-19T08:47:49.740Z,14.47
2019-02-19T08:50:18.566Z,13.48
2019-02-19T08:52:47.302Z,13.93
2019-02-19T08:55:16.086Z,14.87
2019-02-19T08:57:44.841Z,14.45
2019-02-19T09:00:13.634Z,14.03
2019-02-19T09:02:42.391Z,15.32
2019-02-19T09:05:11.220Z,12.88
2019-02-19T09:07:40.083Z,14.07
2019-02-19T09:10:09.542Z,12.85
2019-02-19T09:12:38.330Z,13.72
2019-02-19T09:15:08.411Z,12.18
2019-02-19T09:17:37.264Z,11.57
2019-02-19T09:20:06.484Z,13.38
2019-02-19T09:22:35.302Z,13.48
2019-02-19T09:25:04.097Z,13.03
2019-02-19T09:27:32.806Z,11.50
2019-02-19T09:30:01.581Z,12.88
2019-02-19T09:32:30.384Z,13.00
2019-02-19T09:34:59.336Z,12.40
2019-02-19T09:37:28.078Z,13.55
2019-02-19T09:39:56.907Z,11.88
2019-02-19T09:42:26.002Z,12.45
2019-02-19T09:44:55.028Z,13.70
2019-02-19T09:47:23.807Z,12.58
2019-02-19T09:49:52.523Z,12.45
2019-02-19T09:52:21.281Z,13.50
2019-02-19T09:54:50.002Z,12.40
2019-02-19T09:57:18.904Z,13.53
2019-02-19T09:59:47.829Z,13.18
2019-02-19T10:02:16.594Z,12.80
2019-02-19T10:04:45.563Z,11.95
2019-02-19T10:07:14.826Z,10.98
2019-02-19T10:09:43.619Z,10.40
2019-02-19T10:12:12.581Z,10.65
2019-02-19T10:14:41.330Z,11.00
2019-02-19T10:17:10.201Z,10.15
2019-02-19T10:19:39.177Z,10.43
2019-02-19T10:22:08.042Z,11.25
2019-02-19T10:24:36.864Z,11.43
2019-02-19T10:27:05.697Z,11.50
2019-02-19T10:29:34.655Z,10.13
2019-02-19T10:32:03.565Z,9.63
2019-02-19T10:34:32.350Z,9.53
2019-02-19T10:37:01.613Z,8.63
2019-02-19T10:39:30.486Z,8.48
2019-02-19T10:41:59.446Z,8.33
2019-02-19T10:44:28.321Z,8.45
2019-02-19T10:46:57.057Z,7.20
2019-02-19T10:49:25.856Z,8.08
2019-02-19T10:51:54.653Z,7.90
2019-02-19T10:54:23.533Z,8.33
2019-02-19T10:56:52.314Z,6.97
2019-02-19T10:59:21.102Z,6.55
2019-02-19T11:01:49.895Z,8.45
2019-02-19T11:04:18.686Z,7.00
2019-02-19T11:06:47.697Z,8.85
2019-02-19T11:09:16.618Z,8.63
2019-02-19T11:11:45.537Z,8.48
2019-02-19T11:14:14.431Z,7.78
2019-02-19T11:16:43.265Z,7.22
2019-02-19T11:19:12.173Z,8.25
2019-02-19T11:21:40.940Z,7.80
2019-02-19T11:24:09.694Z,8.78
2019-02-19T11:26:38.580Z,9.05
2019-02-19T11:29:07.437Z,8.38
2019-02-19T11:31:36.319Z,9.35
2019-02-19T11:34:05.089Z,7.78
2019-02-19T11:36:33.891Z,8.85
2019-02-19T11:39:02.711Z,8.45
2019-02-19T11:41:31.549Z,9.28
2019-02-19T11:44:00.416Z,8.80
2019-02-19T11:46:29.175Z,8.05
2019-02-19T11:48:58.109Z,8.23
2019-02-19T11:51:27.007Z,8.95
2019-02-19T11:53:55.758Z,8.50
2019-02-19T11:56:24.502Z,7.60
2019-02-19T11:58:53.298Z,8.28
2019-02-19T12:01:22.241Z,7.33
2019-02-19T12:03:50.994Z,7.67
2019-02-19T12:06:19.787Z,7.78
2019-02-19T12:08:48.676Z,7.12
2019-02-19T12:11:17.409Z,8.20
2019-02-19T12:13:50.632Z,7.20
2019-02-19T12:16:19.422Z,7.28
2019-02-19T12:18:48.191Z,7.20
2019-02-19T12:21:16.896Z,7.42
2019-02-19T12:23:45.690Z,7.03
2019-02-19T12:26:14.449Z,7.08
2019-02-19T12:28:43.165Z,7.42
2019-02-19T12:31:12.004Z,8.08
2019-02-19T12:33:40.758Z,6.80
2019-02-19T12:36:09.630Z,7.80
2019-02-19T12:38:38.498Z,7.67
2019-02-19T12:41:07.376Z,7.95
2019-02-19T12:43:36.119Z,7.85
2019-02-19T12:46:04.976Z,8.40
2019-02-19T12:48:33.761Z,8.38
2019-02-19T12:51:02.563Z,8.18
2019-02-19T12:53:31.462Z,8.30
2019-02-19T12:58:56.795Z,9.30
2019-02-19T13:01:37.592Z,8.43
2019-02-19T13:04:16.755Z,8.38
2019-02-19T13:07:04.823Z,7.35
2019-02-19T13:09:52.845Z,8.63
2019-02-19T13:12:40.862Z,7.65
2019-02-19T13:15:29.196Z,7.75
2019-02-19T13:18:17.224Z,7.35
2019-02-19T13:20:58.823Z,9.38
2019-02-19T13:23:40.710Z,8.88
2019-02-19T13:26:21.902Z,7.75
2019-02-19T13:31:46.309Z,8.60
2019-02-19T13:34:26.947Z,8.78
2019-02-19T13:37:07.531Z,7.78
2019-02-19T13:39:48.348Z,8.08
2019-02-19T13:42:29.686Z,8.68
2019-02-19T13:45:10.187Z,7.80
2019-02-19T13:47:51.551Z,8.03
2019-02-19T13:50:32.298Z,7.83
2019-02-19T13:56:11.099Z,7.40
2019-02-19T13:58:52.065Z,7.70
2019-02-19T14:01:32.930Z,7.45
2019-02-19T14:04:14.054Z,7.95
2019-02-19T14:06:54.938Z,7.28
2019-02-19T14:09:36.120Z,7.80
2019-02-19T14:12:17.083Z,6.67
2019-02-19T14:17:55.241Z,6.58
2019-02-19T14:20:54.998Z,7.60
2019-02-19T14:23:57.718Z,6.95
2019-02-19T14:27:00.033Z,7.50
2019-02-19T14:29:59.765Z,6.80
2019-02-19T14:32:59.287Z,6.62
2019-02-19T14:35:59.567Z,7.17
2019-02-19T14:38:59.248Z,6.92
2019-02-19T14:42:04.806Z,7.10
2019-02-19T14:45:05.022Z,7.15
2019-02-19T14:48:07.447Z,6.78
2019-02-19T14:51:07.111Z,7.03
2019-02-19T14:53:58.129Z,6.95
2019-02-19T14:56:39.402Z,6.62
2019-02-19T14:59:30.620Z,6.95
2019-02-19T15:05:38.461Z,6.72
2019-02-19T15:08:45.780Z,6.22
2019-02-19T15:11:52.825Z,6.42
2019-02-19T15:14:59.942Z,6.33
2019-02-19T15:18:06.985Z,5.70
2019-02-19T15:21:06.785Z,5.28
2019-02-19T15:24:06.203Z,5.28
2019-02-19T15:27:05.838Z,5.40
2019-02-19T15:30:05.377Z,5.03
2019-02-19T15:33:04.939Z,4.97
2019-02-19T15:36:10.293Z,4.67
2019-02-19T15:39:09.981Z,3.60
2019-02-19T15:42:10.350Z,5.20
2019-02-19T15:45:09.796Z,5.22
2019-02-19T15:48:02.787Z,5.45
2019-02-19T15:51:02.938Z,4.53
2019-02-19T15:54:02.447Z,3.60
2019-02-19T15:57:02.681Z,3.55
2019-02-19T16:00:02.953Z,3.40
2019-02-19T16:06:03.627Z,3.15
2019-02-19T16:08:51.491Z,3.47
2019-02-19T16:11:40.226Z,3.37
2019-02-19T16:14:40.428Z,3.10
2019-02-19T16:17:39.994Z,3.40
2019-02-19T16:20:40.352Z,3.33
2019-02-19T16:23:20.853Z,3.40
2019-02-19T16:28:44.239Z,3.47
2019-02-19T16:34:14.886Z,2.62
2019-02-19T16:36:52.218Z,3.05
2019-02-19T16:39:40.057Z,3.42
2019-02-19T16:42:27.878Z,3.08
2019-02-19T16:45:15.702Z,2.75
2019-02-19T16:48:03.554Z,4.20
2019-02-19T16:51:10.607Z,3.33
2019-02-19T16:53:58.387Z,3.20
2019-02-19T16:57:08.231Z,3.50
2019-02-19T17:00:15.315Z,3.55
2019-02-19T17:03:22.755Z,3.30
2019-02-19T17:06:19.013Z,3.10
2019-02-19T17:09:26.129Z,2.85
2019-02-19T17:12:32.723Z,3.10
2019-02-19T17:15:39.971Z,2.70
2019-02-19T17:18:27.785Z,2.65
2019-02-19T17:21:34.826Z,4.08
2019-02-19T17:24:22.347Z,3.25
2019-02-19T17:30:07.359Z,3.35
2019-02-19T17:35:49.760Z,3.70
2019-02-19T17:38:36.872Z,3.00
2019-02-19T17:41:36.830Z,4.05
2019-02-19T17:44:22.131Z,3.83
2019-02-19T17:47:22.312Z,4.40
2019-02-19T17:50:12.887Z,4.15
2019-02-19T17:53:07.251Z,3.40
2019-02-19T17:55:59.006Z,4.45
2019-02-19T17:58:47.495Z,4.30
2019-02-19T18:01:35.101Z,4.60
2019-02-19T18:04:35.024Z,5.80
2019-02-19T18:07:34.738Z,7.30
2019-02-19T18:10:15.268Z,4.55
2019-02-19T18:13:17.797Z,5.42
2019-02-19T18:16:05.151Z,4.12
2019-02-19T18:18:52.930Z,4.62
2019-02-19T18:21:34.391Z,4.05
2019-02-19T18:24:15.190Z,3.62
2019-02-19T18:26:55.961Z,3.45
2019-02-19T18:29:36.788Z,3.05
2019-02-19T18:32:17.587Z,4.20
2019-02-19T18:34:58.575Z,4.25
2019-02-19T18:37:39.405Z,3.05
2019-02-19T18:40:20.510Z,2.40
2019-02-19T18:43:00.901Z,2.75
2019-02-19T18:45:42.387Z,2.98
2019-02-19T18:48:22.862Z,2.22
2019-02-19T18:51:04.248Z,3.42
2019-02-19T18:53:44.916Z,2.52
2019-02-19T18:56:25.739Z,2.37
2019-02-19T18:59:06.568Z,2.67
2019-02-19T19:01:47.463Z,2.55
2019-02-19T19:04:28.220Z,3.33
2019-02-19T19:07:09.043Z,3.50
2019-02-19T19:09:49.983Z,3.00
2019-02-19T19:12:30.949Z,3.05
2019-02-19T19:15:11.947Z,4.03
2019-02-19T19:17:52.465Z,3.02
2019-02-19T19:20:33.056Z,2.70
2019-02-19T19:23:02.113Z,3.33
2019-02-19T19:25:50.250Z,3.30
2019-02-19T19:28:38.307Z,3.15
2019-02-19T19:31:33.132Z,2.65
2019-02-19T19:34:16.042Z,3.27
2019-02-19T19:37:04.124Z,3.00
2019-02-19T19:39:52.167Z,3.62
2019-02-19T19:42:52.492Z,3.45
2019-02-19T19:45:30.261Z,3.17
2019-02-19T19:48:18.321Z,3.95
2019-02-19T19:51:06.573Z,3.40
2019-02-19T19:53:54.821Z,4.15
2019-02-19T19:56:42.876Z,3.45
2019-02-19T19:59:30.965Z,6.05
2019-02-19T20:02:20.017Z,3.83
2019-02-19T20:05:08.915Z,4.35
2019-02-19T20:07:57.076Z,3.95
2019-02-19T20:13:52.441Z,4.50
2019-02-19T20:16:40.531Z,4.33
2019-02-19T20:19:28.595Z,4.58
2019-02-19T20:22:09.971Z,4.78
2019-02-19T20:24:50.675Z,4.60
2019-02-19T20:27:31.658Z,4.47
2019-02-19T20:30:12.280Z,5.00
2019-02-19T20:32:53.103Z,4.53
2019-02-19T20:35:34.418Z,4.42
2019-02-19T20:40:58.754Z,4.65
2019-02-19T20:46:22.389Z,3.92
2019-02-19T20:49:03.027Z,3.90
2019-02-19T20:51:43.751Z,4.97
2019-02-19T20:54:24.716Z,4.17
2019-02-19T20:57:05.727Z,4.15
2019-02-19T20:59:46.904Z,4.50
2019-02-19T21:02:27.697Z,5.00
2019-02-19T21:05:08.940Z,5.40
2019-02-19T21:07:53.209Z,4.95
2019-02-19T21:10:33.367Z,4.05
2019-02-19T21:13:14.590Z,4.78
2019-02-19T21:15:56.078Z,4.55
2019-02-19T21:18:37.552Z,5.08
2019-02-19T21:26:49.477Z,4.85
2019-02-19T21:29:31.230Z,5.90
2019-02-19T21:32:12.506Z,5.33
2019-02-19T21:34:54.255Z,4.97
2019-02-19T21:37:35.444Z,5.37
2019-02-19T21:40:17.110Z,5.45
2019-02-19T21:42:58.167Z,4.92
2019-02-19T21:45:39.299Z,5.47
2019-02-19T21:48:20.978Z,5.62
2019-02-19T21:51:02.744Z,4.90
2019-02-19T21:53:46.638Z,5.75
2019-02-19T21:56:27.983Z,5.92
2019-02-19T21:58:57.163Z,5.37
2019-02-19T22:01:45.410Z,5.30
2019-02-19T22:04:53.217Z,5.37
2019-02-19T22:07:44.798Z,5.67
2019-02-19T22:10:33.174Z,5.72
2019-02-19T22:13:25.200Z,5.90
2019-02-19T22:16:13.556Z,5.17
2019-02-19T22:19:02.710Z,6.25
2019-02-19T22:28:02.304Z,5.45
2019-02-19T22:30:41.748Z,6.12
2019-02-19T22:33:29.685Z,5.87
2019-02-19T22:36:10.941Z,5.85
2019-02-19T22:38:51.594Z,5.72
2019-02-19T22:44:21.521Z,5.55
2019-02-19T22:47:21.177Z,6.35
2019-02-19T22:49:55.060Z,5.00
2019-02-19T22:52:37.574Z,5.83
2019-02-19T22:55:28.451Z,5.75
2019-02-19T23:04:30.792Z,4.50
2019-02-19T23:10:36.392Z,5.05
2019-02-19T23:13:24.943Z,4.65
2019-02-19T23:16:13.533Z,4.22
2019-02-19T23:19:02.421Z,4.05
2019-02-19T23:21:50.818Z,4.78
2019-02-19T23:24:19.590Z,4.47
2019-02-19T23:26:48.341Z,4.22
2019-02-19T23:29:36.391Z,3.80
2019-02-19T23:32:24.391Z,4.87
2019-02-19T23:38:27.135Z,4.28
2019-02-19T23:41:15.132Z,4.62
2019-02-19T23:44:03.470Z,4.23
2019-02-19T23:46:51.473Z,3.55
2019-02-19T23:52:33.661Z,3.72
2019-02-19T23:55:21.686Z,4.53
2019-02-19T23:58:09.634Z,4.53
